Lewisville, Texas
Current Conditions -  °F | °C
As of 2:53 PM on Thursday 20 Nov 2014 (Local Time) from KDFW Reporting Station
Scattered Clouds Scattered Clouds  
Wind Chill: 71°   Ceiling: Unl
Heat Index: 71°   Visibility: 10mi
Dew Point: 46°   Wind: 14mph
Humidity: 41%   Direction: 170°S
Pressure: 29.99"   Gusts: NA
Location:  33.0541°N, 97.0363°W
Report Text: KDFW 202053Z 17012KT 10SM FEW050 FEW100 SCT250 22/08 A2999 RMK AO2 SLP150 T02170078 56031
Loading
Personal Weather Stations






























Interactive Weather Map New forecast layout! Learn more

10-Day Weather Forecast

Advertisements
Track Severe Weather on mobile